createdAt,value
2018-06-12T00:00:27.870Z,16.00
2018-06-12T00:05:30.936Z,15.80
2018-06-12T00:10:33.981Z,15.80
2018-06-12T00:15:37.053Z,15.70
2018-06-12T00:20:40.105Z,15.60
2018-06-12T00:25:43.145Z,15.50
2018-06-12T00:30:46.593Z,15.30
2018-06-12T00:35:49.637Z,15.30
2018-06-12T00:40:52.685Z,15.20
2018-06-12T00:45:55.769Z,15.10
2018-06-12T00:50:58.801Z,15.00
2018-06-12T00:56:01.873Z,15.00
2018-06-12T01:01:05.012Z,14.90
2018-06-12T01:06:08.070Z,14.90
2018-06-12T01:11:11.140Z,14.80
2018-06-12T01:16:14.229Z,14.80
2018-06-12T01:21:17.276Z,14.70
2018-06-12T01:26:20.921Z,14.60
2018-06-12T01:31:23.991Z,14.50
2018-06-12T01:36:27.040Z,14.50
2018-06-12T01:41:30.077Z,14.40
2018-06-12T01:46:33.124Z,14.40
2018-06-12T01:51:36.176Z,14.30
2018-06-12T01:56:39.225Z,14.40
2018-06-12T02:01:42.296Z,14.40
2018-06-12T02:06:45.333Z,14.50
2018-06-12T02:11:48.376Z,14.50
2018-06-12T02:16:51.425Z,14.50
2018-06-12T02:21:54.466Z,14.40
2018-06-12T02:32:00.452Z,14.30
2018-06-12T02:37:03.491Z,14.20
2018-06-12T02:42:06.547Z,14.10
2018-06-12T02:47:09.585Z,14.10
2018-06-12T02:52:13.268Z,14.10
2018-06-12T02:57:16.388Z,14.10
2018-06-12T03:02:19.452Z,14.10
2018-06-12T03:07:22.625Z,14.10
2018-06-12T03:12:25.665Z,14.20
2018-06-12T03:17:28.725Z,14.20
2018-06-12T03:22:31.832Z,14.20
2018-06-12T03:27:34.885Z,14.20
2018-06-12T03:32:37.953Z,14.20
2018-06-12T03:37:41.018Z,14.20
2018-06-12T03:42:44.065Z,14.20
2018-06-12T03:47:47.117Z,14.20
2018-06-12T03:52:50.161Z,14.20
2018-06-12T03:57:53.216Z,14.20
2018-06-12T04:02:56.296Z,14.30
2018-06-12T04:07:59.381Z,14.30
2018-06-12T04:13:02.436Z,14.30
2018-06-12T04:18:05.519Z,14.30
2018-06-12T04:23:08.561Z,14.30
2018-06-12T04:28:12.254Z,14.40
2018-06-12T04:33:15.307Z,14.50
2018-06-12T04:38:18.344Z,14.70
2018-06-12T04:43:21.447Z,14.70
2018-06-12T04:48:24.497Z,14.80
2018-06-12T04:53:27.581Z,14.80
2018-06-12T04:58:30.625Z,14.80
2018-06-12T05:03:33.773Z,14.70
2018-06-12T05:08:36.833Z,14.70
2018-06-12T05:13:40.129Z,14.80
2018-06-12T05:18:43.172Z,14.90
2018-06-12T05:23:46.272Z,14.90
2018-06-12T05:28:49.353Z,15.00
2018-06-12T05:38:55.321Z,15.20
2018-06-12T05:43:58.421Z,15.30
2018-06-12T05:49:01.817Z,15.30
2018-06-12T05:54:04.925Z,15.40
2018-06-12T05:59:07.975Z,15.50
2018-06-12T06:04:11.136Z,15.60
2018-06-12T06:09:14.190Z,15.80
2018-06-12T06:14:17.241Z,15.90
2018-06-12T06:19:20.277Z,16.00
2018-06-12T06:24:23.318Z,16.00
2018-06-12T06:29:26.383Z,16.10
2018-06-12T06:34:30.051Z,16.10
2018-06-12T06:39:33.107Z,15.90
2018-06-12T06:44:37.229Z,15.90
2018-06-12T06:49:40.272Z,16.00
2018-06-12T06:54:43.340Z,16.00
2018-06-12T06:59:46.381Z,16.10
2018-06-12T07:04:49.440Z,16.20
2018-06-12T07:09:52.478Z,16.40
2018-06-12T07:14:55.572Z,16.40
2018-06-12T07:19:58.889Z,16.40
2018-06-12T07:25:01.941Z,16.40
2018-06-12T07:30:04.999Z,16.40
2018-06-12T07:35:08.036Z,16.40
2018-06-12T07:40:11.089Z,16.40
2018-06-12T07:45:14.132Z,16.50
2018-06-12T07:50:17.748Z,16.50
2018-06-12T07:55:20.785Z,16.40
2018-06-12T08:00:23.827Z,16.30
2018-06-12T08:05:26.889Z,16.20
2018-06-12T08:10:29.949Z,16.30
2018-06-12T08:15:33.028Z,16.40
2018-06-12T08:20:36.112Z,16.50
2018-06-12T08:25:40.435Z,16.70
2018-06-12T08:30:43.478Z,16.90
2018-06-12T08:35:46.522Z,17.10
2018-06-12T08:40:49.568Z,17.30
2018-06-12T08:45:52.600Z,17.40
2018-06-12T08:50:55.636Z,17.40
2018-06-12T08:55:58.680Z,17.40
2018-06-12T09:01:01.729Z,17.50
2018-06-12T09:06:05.082Z,17.50
2018-06-12T09:11:10.144Z,17.70
2018-06-12T09:16:13.204Z,18.00
2018-06-12T09:21:16.249Z,18.10
2018-06-12T09:26:19.321Z,18.30
2018-06-12T09:31:22.367Z,18.40
2018-06-12T09:36:30.876Z,18.40
2018-06-12T09:41:33.932Z,18.60
2018-06-12T09:46:36.975Z,18.80
2018-06-12T09:51:40.101Z,19.00
2018-06-12T09:56:43.136Z,18.90
2018-06-12T10:01:46.187Z,18.60
2018-06-12T10:06:49.258Z,18.60
2018-06-12T10:11:52.306Z,18.70
2018-06-12T10:16:55.356Z,18.70
2018-06-12T10:21:58.464Z,18.90
2018-06-12T10:27:01.521Z,19.00
2018-06-12T10:32:04.568Z,18.90
2018-06-12T10:37:07.621Z,18.70
2018-06-12T10:42:10.705Z,18.80
2018-06-12T10:47:13.744Z,19.10
2018-06-12T10:52:16.788Z,19.40
2018-06-12T10:57:19.836Z,19.70
2018-06-12T11:02:22.876Z,19.70
2018-06-12T11:07:25.947Z,19.80
2018-06-12T11:12:29.003Z,19.90
2018-06-12T11:17:32.060Z,19.90
2018-06-12T11:22:35.093Z,20.00
2018-06-12T11:27:38.206Z,20.00
2018-06-12T11:32:41.268Z,20.20
2018-06-12T11:37:44.312Z,20.30
2018-06-12T11:42:47.345Z,20.30
2018-06-12T11:47:50.384Z,20.40
2018-06-12T11:52:53.428Z,20.50
2018-06-12T11:57:57.498Z,20.50
2018-06-12T12:03:00.549Z,20.40
2018-06-12T12:08:03.605Z,20.30
2018-06-12T12:13:06.657Z,20.30
2018-06-12T12:18:09.806Z,20.30
2018-06-12T12:23:12.856Z,20.30
2018-06-12T12:28:15.921Z,20.20
2018-06-12T12:33:19.078Z,20.40
2018-06-12T12:38:22.132Z,20.40
2018-06-12T12:43:25.213Z,20.40
2018-06-12T12:48:28.372Z,20.40
2018-06-12T12:53:31.420Z,20.40
2018-06-12T13:03:37.601Z,20.70
2018-06-12T13:08:40.659Z,20.60
2018-06-12T13:13:43.784Z,20.70
2018-06-12T13:18:46.857Z,20.70
2018-06-12T13:23:53.310Z,20.80
2018-06-12T13:28:56.337Z,20.80
2018-06-12T13:33:59.396Z,20.70
2018-06-12T13:39:04.684Z,20.80
2018-06-12T13:44:08.816Z,20.90
2018-06-12T13:49:11.853Z,21.00
2018-06-12T13:54:14.909Z,20.90
2018-06-12T13:59:17.949Z,20.90
2018-06-12T14:04:20.995Z,20.80
2018-06-12T14:09:24.177Z,20.60
2018-06-12T14:14:27.232Z,20.60
2018-06-12T14:19:31.009Z,20.50
2018-06-12T14:24:34.094Z,20.50
2018-06-12T14:29:37.205Z,20.40
2018-06-12T14:34:40.329Z,20.40
2018-06-12T14:39:43.377Z,20.40
2018-06-12T14:44:46.533Z,20.40
2018-06-12T14:49:49.654Z,20.40
2018-06-12T14:59:55.533Z,20.30
2018-06-12T15:04:59.137Z,20.20
2018-06-12T15:10:02.458Z,20.10
2018-06-12T15:15:21.978Z,20.10
2018-06-12T15:20:25.105Z,20.00
2018-06-12T15:25:28.169Z,20.00
2018-06-12T15:30:31.290Z,20.00
2018-06-12T15:35:34.719Z,19.90
2018-06-12T15:40:37.801Z,19.90
2018-06-12T15:45:40.873Z,19.90
2018-06-12T15:50:44.041Z,19.90
2018-06-12T15:55:47.144Z,19.80
2018-06-12T16:00:50.207Z,19.60
2018-06-12T16:05:53.279Z,19.60
2018-06-12T16:10:56.338Z,19.50
2018-06-12T16:15:59.512Z,19.50
2018-06-12T16:21:02.581Z,19.50
2018-06-12T16:26:05.767Z,19.40
2018-06-12T16:31:08.862Z,19.30
2018-06-12T16:36:12.008Z,19.30
2018-06-12T16:41:15.095Z,19.20
2018-06-12T16:46:18.185Z,19.10
2018-06-12T16:51:21.257Z,19.00
2018-06-12T16:56:24.305Z,18.80
2018-06-12T17:01:27.405Z,18.80
2018-06-12T17:06:30.484Z,18.70
2018-06-12T17:11:33.653Z,18.70
2018-06-12T17:16:36.721Z,18.70
2018-06-12T17:21:39.860Z,18.60
2018-06-12T17:26:43.684Z,18.60
2018-06-12T17:31:46.803Z,18.40
2018-06-12T17:36:49.913Z,18.40
2018-06-12T17:41:53.913Z,18.40
2018-06-12T17:46:57.010Z,18.40
2018-06-12T17:52:00.170Z,18.40
2018-06-12T17:57:03.285Z,18.30
2018-06-12T18:02:06.514Z,18.30
2018-06-12T18:07:09.689Z,18.30
2018-06-12T18:17:15.635Z,18.20
2018-06-12T18:22:18.699Z,18.20
2018-06-12T18:27:21.767Z,18.20
2018-06-12T18:32:24.821Z,18.00
2018-06-12T18:37:27.869Z,17.90
2018-06-12T18:42:30.946Z,17.80
2018-06-12T18:47:34.005Z,17.70
2018-06-12T18:52:37.068Z,17.70
2018-06-12T18:57:40.147Z,17.60
2018-06-12T19:02:43.223Z,17.50
2018-06-12T19:07:46.276Z,17.50
2018-06-12T19:12:49.369Z,17.40
2018-06-12T19:17:52.563Z,17.30
2018-06-12T19:22:55.619Z,17.20
2018-06-12T19:27:58.716Z,17.20
2018-06-12T19:33:01.765Z,17.10
2018-06-12T19:38:05.753Z,17.00
2018-06-12T19:43:18.932Z,17.00
2018-06-12T19:48:21.969Z,16.90
2018-06-12T19:53:25.017Z,16.90
2018-06-12T19:58:28.057Z,16.80
2018-06-12T20:03:41.677Z,16.80
2018-06-12T20:08:44.828Z,16.70
2018-06-12T20:13:47.877Z,16.60
2018-06-12T20:18:51.038Z,16.50
2018-06-12T20:23:54.081Z,16.30
2018-06-12T20:28:57.133Z,16.20
2018-06-12T20:34:00.252Z,16.10
2018-06-12T20:39:04.093Z,16.10
2018-06-12T20:44:07.141Z,16.20
2018-06-12T20:49:10.176Z,16.20
2018-06-12T20:54:13.212Z,16.20
2018-06-12T20:59:16.248Z,16.20
2018-06-12T21:04:19.313Z,16.30
2018-06-12T21:09:22.369Z,16.20
2018-06-12T21:14:25.409Z,16.20
2018-06-12T21:19:28.453Z,16.20
2018-06-12T21:24:31.493Z,16.10
2018-06-12T21:29:34.527Z,16.10
2018-06-12T21:34:37.583Z,16.10
2018-06-12T21:39:40.622Z,16.10
2018-06-12T21:44:43.666Z,16.10
2018-06-12T21:49:49.384Z,16.10
2018-06-12T21:54:52.539Z,16.10
2018-06-12T21:59:55.581Z,16.10
2018-06-12T22:04:58.957Z,16.00
2018-06-12T22:10:02.562Z,16.00
2018-06-12T22:15:06.190Z,16.00
2018-06-12T22:20:09.411Z,16.00
2018-06-12T22:25:24.521Z,15.90
2018-06-12T22:30:28.513Z,15.90
2018-06-12T22:35:31.853Z,15.90
2018-06-12T22:40:34.901Z,15.90
2018-06-12T22:45:38.442Z,15.90
2018-06-12T22:50:41.581Z,15.80
2018-06-12T22:55:50.316Z,15.80
2018-06-12T23:00:54.621Z,15.80
2018-06-12T23:05:58.005Z,15.80
2018-06-12T23:11:01.047Z,15.80
2018-06-12T23:16:04.085Z,15.70
2018-06-12T23:26:32.977Z,15.70
2018-06-12T23:31:36.018Z,15.70
2018-06-12T23:36:39.068Z,15.70
2018-06-12T23:42:09.934Z,15.70
2018-06-12T23:47:13.393Z,15.60
2018-06-12T23:52:16.590Z,15.60
2018-06-12T23:57:19.622Z,15.60
